Time;durP1;ratioP1;P1;durP2;ratioP2;P2;SDS_P1;SDS_P2;PMS_P1;PMS_P2;Temp;Humidity;BMP_temperature;BMP_pressure;BME280_temperature;BME280_humidity;BME280_pressure;Samples;Min_cycle;Max_cycle;Signal;HPM_P1;HPM_P2
2021/03/13 00:00:46;;;;;;;0.40;0.10;;;20.70;37.50;;;;;;5048379;28;20037;-83
2021/03/13 00:03:12;;;;;;;2.45;0.10;;;20.70;37.50;;;;;;5044600;28;20044;-81
2021/03/13 00:05:41;;;;;;;2.58;0.10;;;20.70;37.50;;;;;;5044101;28;20078;-81
2021/03/13 00:08:07;;;;;;;0.60;0.10;;;20.70;37.50;;;;;;5044946;28;20021;-81
2021/03/13 00:10:35;;;;;;;1.02;0.10;;;20.70;37.50;;;;;;5042447;28;20420;-81
2021/03/13 00:13:01;;;;;;;0.40;0.10;;;20.70;37.50;;;;;;5045900;28;20028;-82
2021/03/13 00:15:27;;;;;;;0.90;0.10;;;20.70;37.40;;;;;;5045526;28;20108;-82
2021/03/13 00:17:55;;;;;;;0.98;0.17;;;20.60;37.40;;;;;;5026445;28;20119;-83
2021/03/13 00:20:24;;;;;;;0.32;0.00;;;20.60;37.40;;;;;;5045797;28;20025;-83
2021/03/13 00:22:50;;;;;;;0.75;0.10;;;20.60;37.50;;;;;;5043479;28;20037;-83
2021/03/13 00:25:17;;;;;;;0.40;0.10;;;20.60;37.50;;;;;;5028356;28;20067;-82
2021/03/13 00:27:46;;;;;;;1.55;0.10;;;20.60;37.50;;;;;;5044074;28;20248;-82
2021/03/13 00:30:13;;;;;;;0.50;0.10;;;20.60;37.50;;;;;;5042860;28;20451;-83
2021/03/13 00:32:39;;;;;;;0.30;0.10;;;20.60;38.00;;;;;;5067402;28;20401;-82
2021/03/13 00:35:05;;;;;;;2.25;0.20;;;20.50;37.40;;;;;;5042676;28;20030;-82
2021/03/13 00:37:31;;;;;;;1.75;0.20;;;20.60;37.50;;;;;;5043402;28;20013;-83
2021/03/13 00:39:56;;;;;;;1.63;0.10;;;20.50;37.50;;;;;;5044696;28;20539;-83
2021/03/13 00:42:22;;;;;;;0.30;0.20;;;20.60;37.50;;;;;;5043559;28;20025;-84
2021/03/13 00:44:47;;;;;;;1.13;0.10;;;20.50;37.60;;;;;;5043006;28;20060;-83
2021/03/13 00:47:13;;;;;;;1.48;0.20;;;20.50;37.60;;;;;;5043403;28;20080;-82
2021/03/13 00:49:38;;;;;;;0.52;0.10;;;20.50;37.60;;;;;;5043977;28;20036;-82
2021/03/13 00:52:04;;;;;;;0.30;0.10;;;20.50;37.60;;;;;;5028065;28;20032;-83
2021/03/13 00:54:30;;;;;;;0.32;0.10;;;20.50;37.60;;;;;;5044825;28;20056;-82
2021/03/13 00:56:55;;;;;;;0.47;0.10;;;20.50;37.60;;;;;;5043375;28;20505;-82
2021/03/13 00:59:21;;;;;;;0.68;0.10;;;20.40;37.60;;;;;;5043855;28;20575;-84
2021/03/13 01:01:47;;;;;;;1.27;0.10;;;20.40;37.60;;;;;;5043970;28;20099;-83
2021/03/13 01:04:12;;;;;;;0.32;0.10;;;20.50;37.60;;;;;;5044400;28;20060;-83
2021/03/13 01:06:38;;;;;;;0.65;0.10;;;20.40;37.60;;;;;;5042854;28;20025;-82
2021/03/13 01:09:05;;;;;;;0.25;0.10;;;20.50;37.60;;;;;;5041335;28;20021;-83
2021/03/13 01:11:31;;;;;;;0.50;0.10;;;20.50;37.60;;;;;;5046267;28;20037;-83
2021/03/13 01:13:57;;;;;;;1.77;0.20;;;20.40;37.50;;;;;;5041433;28;20657;-83
2021/03/13 01:16:22;;;;;;;0.90;0.10;;;20.40;37.60;;;;;;5045648;28;20037;-82
2021/03/13 01:18:48;;;;;;;0.40;0.10;;;20.40;37.60;;;;;;5046795;28;20067;-82
2021/03/13 01:21:14;;;;;;;0.50;0.10;;;20.40;37.60;;;;;;5028616;28;20033;-83
2021/03/13 01:23:39;;;;;;;0.38;0.10;;;20.40;37.50;;;;;;5045700;28;20090;-83
2021/03/13 01:26:05;;;;;;;0.40;0.10;;;20.40;37.60;;;;;;5039876;28;20033;-82
2021/03/13 01:28:30;;;;;;;1.30;0.30;;;20.40;37.50;;;;;;5042512;28;20033;-83
2021/03/13 01:30:56;;;;;;;0.85;0.13;;;20.40;37.50;;;;;;5045789;28;20370;-83
2021/03/13 01:33:22;;;;;;;0.63;0.10;;;20.40;37.50;;;;;;5025621;28;20499;-83
2021/03/13 01:35:47;;;;;;;0.50;0.10;;;20.30;37.50;;;;;;5027265;28;20043;-84
2021/03/13 01:38:13;;;;;;;0.38;0.10;;;20.40;37.60;;;;;;5043342;28;20036;-82
2021/03/13 01:40:39;;;;;;;0.20;0.00;;;20.40;37.60;;;;;;5027560;28;20484;-84
2021/03/13 01:43:05;;;;;;;1.08;0.10;;;20.40;37.60;;;;;;5043191;28;20034;-84
2021/03/13 01:45:32;;;;;;;0.38;0.10;;;20.40;37.50;;;;;;5038458;28;20164;-83
2021/03/13 01:47:58;;;;;;;0.65;0.10;;;20.40;37.60;;;;;;5041831;28;20401;-83
2021/03/13 01:50:24;;;;;;;1.00;0.10;;;20.30;37.50;;;;;;5043589;28;20409;-84
2021/03/13 01:52:50;;;;;;;0.40;0.00;;;20.40;37.50;;;;;;5037456;28;20033;-84
2021/03/13 01:55:17;;;;;;;0.43;0.10;;;20.30;37.50;;;;;;5038368;28;20048;-82
2021/03/13 01:57:43;;;;;;;0.73;0.10;;;20.40;37.60;;;;;;5043128;28;20501;-84
2021/03/13 02:00:15;;;;;;;0.32;0.10;;;20.30;37.40;;;;;;5026884;28;20040;-83
2021/03/13 02:02:42;;;;;;;0.50;0.10;;;20.30;37.50;;;;;;5023781;28;20021;-83
2021/03/13 02:05:26;;;;;;;0.35;0.10;;;20.30;37.50;;;;;;5039011;28;20029;-83
2021/03/13 02:08:07;;;;;;;0.70;0.10;;;20.30;37.50;;;;;;5040043;28;20512;-83
2021/03/13 02:10:56;;;;;;;0.60;0.10;;;20.30;37.60;;;;;;5044249;28;20083;-84
2021/03/13 02:13:36;;;;;;;0.47;0.10;;;20.30;37.60;;;;;;5042864;28;20045;-84
2021/03/13 02:16:11;;;;;;;0.90;0.10;;;20.30;37.60;;;;;;5041621;28;20397;-84
2021/03/13 02:18:44;;;;;;;1.83;0.17;;;20.20;37.60;;;;;;5040846;28;20091;-82
2021/03/13 02:21:20;;;;;;;0.38;0.10;;;20.30;37.60;;;;;;5040675;28;20033;-83
2021/03/13 02:24:14;;;;;;;0.80;0.10;;;20.30;37.60;;;;;;5064764;28;20475;-82
2021/03/13 02:27:02;;;;;;;0.50;0.08;;;20.20;37.50;;;;;;5023193;28;20033;-83
2021/03/13 02:29:41;;;;;;;0.38;0.03;;;20.20;37.60;;;;;;5044895;28;20082;-83
2021/03/13 02:32:12;;;;;;;0.55;0.10;;;20.20;37.60;;;;;;5040760;28;20090;-83
2021/03/13 02:34:42;;;;;;;1.35;0.10;;;20.20;37.50;;;;;;5042472;28;20109;-83
2021/03/13 02:37:16;;;;;;;0.52;0.15;;;20.20;37.50;;;;;;5040734;28;20498;-82
2021/03/13 02:39:44;;;;;;;0.20;0.00;;;20.20;37.60;;;;;;5042472;28;20162;-84
2021/03/13 02:42:13;;;;;;;0.38;0.08;;;20.20;37.50;;;;;;5044398;28;20033;-84
2021/03/13 02:44:39;;;;;;;0.32;0.03;;;20.20;37.60;;;;;;5026012;28;20554;-84
2021/03/13 02:47:06;;;;;;;0.30;0.10;;;20.10;37.60;;;;;;5039147;28;20029;-83
2021/03/13 02:49:35;;;;;;;1.02;0.10;;;20.20;37.60;;;;;;5065582;28;20029;-82
2021/03/13 02:52:02;;;;;;;0.40;0.10;;;20.10;37.50;;;;;;5042081;28;20025;-84
2021/03/13 02:54:28;;;;;;;0.50;0.10;;;20.20;37.50;;;;;;5044773;28;20030;-84
2021/03/13 02:56:56;;;;;;;0.25;0.00;;;20.10;37.50;;;;;;5044827;28;20120;-83
2021/03/13 02:59:22;;;;;;;0.30;0.05;;;20.10;37.50;;;;;;5049000;28;20476;-83
2021/03/13 03:01:48;;;;;;;0.65;0.10;;;20.10;37.50;;;;;;5047469;28;20554;-84
2021/03/13 03:04:18;;;;;;;0.52;0.10;;;20.10;37.60;;;;;;5042003;28;20055;-83
2021/03/13 03:06:53;;;;;;;0.32;0.00;;;20.10;37.50;;;;;;5043703;28;20044;-83
2021/03/13 03:09:21;;;;;;;0.28;0.00;;;20.10;37.60;;;;;;5046482;28;20132;-84
2021/03/13 03:12:07;;;;;;;0.20;0.00;;;20.10;37.50;;;;;;5048869;28;20123;-83
2021/03/13 03:14:33;;;;;;;0.13;0.00;;;20.10;37.60;;;;;;5042611;28;20029;-82
2021/03/13 03:17:02;;;;;;;0.30;0.10;;;20.10;37.60;;;;;;5047963;28;20032;-83
2021/03/13 03:19:28;;;;;;;0.43;0.10;;;20.10;37.60;;;;;;5045325;28;20144;-83
2021/03/13 03:21:54;;;;;;;0.28;0.00;;;20.00;37.50;;;;;;5047207;28;20092;-84
2021/03/13 03:24:20;;;;;;;0.80;0.10;;;20.00;37.50;;;;;;5048514;28;20065;-82
2021/03/13 03:27:05;;;;;;;0.25;0.00;;;20.00;37.50;;;;;;5047356;28;20443;-83
2021/03/13 03:29:32;;;;;;;0.10;0.00;;;20.00;37.50;;;;;;5043749;28;20033;-84
2021/03/13 03:31:57;;;;;;;0.57;0.10;;;20.00;37.60;;;;;;5045236;28;20063;-84
2021/03/13 03:34:23;;;;;;;0.40;0.10;;;20.00;37.60;;;;;;5030177;28;20111;-83
2021/03/13 03:36:49;;;;;;;0.40;0.05;;;20.00;37.60;;;;;;5030376;28;20034;-84
2021/03/13 03:39:16;;;;;;;1.10;0.10;;;20.00;37.50;;;;;;5045379;28;20024;-82
2021/03/13 03:42:03;;;;;;;0.38;0.10;;;20.00;37.60;;;;;;5046479;28;20043;-83
2021/03/13 03:44:37;;;;;;;0.50;0.00;;;20.00;37.60;;;;;;5028789;28;20098;-84
2021/03/13 03:47:04;;;;;;;0.10;0.00;;;19.90;37.50;;;;;;5046355;28;20033;-82
2021/03/13 03:49:33;;;;;;;0.40;0.00;;;20.00;37.60;;;;;;5045919;28;20017;-83
2021/03/13 03:52:00;;;;;;;0.25;0.10;;;19.90;37.60;;;;;;5044000;28;20021;-83
2021/03/13 03:54:27;;;;;;;0.35;0.10;;;20.00;37.60;;;;;;5043988;28;20029;-83
2021/03/13 03:56:53;;;;;;;0.20;0.00;;;19.90;37.50;;;;;;5045047;28;20399;-82
2021/03/13 03:59:21;;;;;;;0.90;0.00;;;20.00;37.60;;;;;;5048512;28;20491;-83
2021/03/13 04:01:52;;;;;;;0.22;0.00;;;20.00;37.60;;;;;;5046087;28;20610;-84
2021/03/13 04:04:22;;;;;;;0.20;0.00;;;19.90;37.60;;;;;;5045650;28;20060;-84
2021/03/13 04:06:53;;;;;;;0.20;0.00;;;19.90;37.50;;;;;;5033143;28;20571;-84
2021/03/13 04:09:22;;;;;;;0.20;0.00;;;20.00;37.60;;;;;;5027405;28;20027;-84
2021/03/13 04:11:49;;;;;;;0.30;0.00;;;19.90;37.50;;;;;;5030642;28;20032;-83
2021/03/13 04:14:15;;;;;;;1.55;0.00;;;19.90;37.50;;;;;;5042728;28;20022;-84
2021/03/13 04:16:41;;;;;;;0.35;0.00;;;19.90;37.60;;;;;;5045085;28;20029;-84
2021/03/13 04:19:09;;;;;;;1.27;0.10;;;19.90;37.50;;;;;;5041923;28;20036;-83
2021/03/13 04:21:35;;;;;;;0.30;0.00;;;19.90;37.50;;;;;;5026532;28;20017;-84
2021/03/13 04:24:00;;;;;;;0.40;0.10;;;19.90;37.50;;;;;;5027440;28;20412;-84
2021/03/13 04:26:29;;;;;;;0.43;0.10;;;19.90;37.50;;;;;;5048005;28;20036;-83
2021/03/13 04:28:55;;;;;;;0.17;0.00;;;19.90;37.50;;;;;;5046181;28;20030;-84
2021/03/13 04:31:28;;;;;;;0.47;0.00;;;19.90;37.50;;;;;;5043065;28;20059;-84
2021/03/13 04:34:05;;;;;;;0.50;0.00;;;19.90;37.50;;;;;;5026170;28;20098;-83
2021/03/13 04:36:32;;;;;;;0.38;0.00;;;19.90;37.50;;;;;;5045261;28;20583;-84
2021/03/13 04:39:00;;;;;;;0.17;0.00;;;19.80;37.60;;;;;;5046791;28;20112;-84
2021/03/13 04:41:27;;;;;;;0.40;0.00;;;19.80;37.50;;;;;;5025120;28;20029;-83
2021/03/13 04:43:54;;;;;;;0.10;0.00;;;19.80;37.50;;;;;;5030941;28;20097;-84
2021/03/13 04:46:21;;;;;;;0.20;0.00;;;19.90;37.60;;;;;;5028067;28;20048;-84
2021/03/13 04:48:47;;;;;;;1.08;0.10;;;19.80;37.50;;;;;;5045797;28;20033;-84
2021/03/13 04:51:17;;;;;;;0.10;0.00;;;19.80;37.50;;;;;;5043618;28;20075;-84
2021/03/13 04:53:43;;;;;;;0.45;0.00;;;19.80;37.50;;;;;;5025833;28;20025;-82
2021/03/13 04:56:10;;;;;;;0.47;0.00;;;19.80;37.50;;;;;;5042695;28;20036;-83
2021/03/13 04:58:35;;;;;;;0.10;0.00;;;19.80;37.50;;;;;;5044752;28;20033;-83
2021/03/13 05:01:01;;;;;;;0.30;0.00;;;19.80;37.40;;;;;;5047174;28;20025;-83
2021/03/13 05:03:26;;;;;;;0.10;0.00;;;19.80;37.40;;;;;;5040706;28;20124;-82
2021/03/13 05:05:52;;;;;;;0.20;0.00;;;19.80;37.40;;;;;;5042136;28;20033;-83
2021/03/13 05:08:18;;;;;;;0.20;0.00;;;19.80;37.40;;;;;;5043301;28;20027;-83
2021/03/13 05:10:43;;;;;;;0.20;0.00;;;19.80;37.40;;;;;;5045656;28;20366;-82
2021/03/13 05:13:09;;;;;;;0.40;0.00;;;19.80;37.40;;;;;;5041472;28;20056;-83
2021/03/13 05:15:34;;;;;;;0.10;0.00;;;19.80;37.40;;;;;;5044174;28;20493;-82
2021/03/13 05:18:00;;;;;;;0.05;0.00;;;19.80;37.50;;;;;;5038547;28;20049;-83
2021/03/13 05:20:26;;;;;;;0.20;0.00;;;19.80;37.40;;;;;;5048376;28;20097;-82
2021/03/13 05:22:51;;;;;;;0.20;0.00;;;19.80;37.40;;;;;;5054498;28;20040;-83
2021/03/13 05:25:18;;;;;;;0.13;0.00;;;19.80;37.40;;;;;;5047903;28;20025;-83
2021/03/13 05:27:44;;;;;;;0.15;0.00;;;19.80;37.40;;;;;;5048377;28;20033;-83
2021/03/13 05:30:11;;;;;;;0.00;0.00;;;19.80;37.40;;;;;;5051050;28;20037;-83
2021/03/13 05:32:37;;;;;;;0.10;0.00;;;19.80;37.40;;;;;;5070865;28;20033;-82
2021/03/13 05:35:08;;;;;;;0.10;0.00;;;19.80;37.30;;;;;;5046062;28;20021;-83
2021/03/13 05:37:35;;;;;;;0.10;0.00;;;19.80;37.40;;;;;;5043709;28;20018;-83
2021/03/13 05:40:00;;;;;;;0.30;0.00;;;19.80;37.40;;;;;;5046447;28;20033;-83
2021/03/13 05:42:28;;;;;;;0.10;0.00;;;19.80;37.40;;;;;;5045783;28;20410;-83
2021/03/13 05:44:54;;;;;;;0.38;0.00;;;19.80;37.40;;;;;;5051284;28;20030;-84
2021/03/13 05:47:21;;;;;;;0.15;0.00;;;19.80;37.30;;;;;;5028754;28;20056;-83
2021/03/13 05:50:05;;;;;;;0.20;0.00;;;19.80;37.40;;;;;;5027682;28;20552;-84
2021/03/13 05:52:33;;;;;;;0.30;0.00;;;19.80;37.40;;;;;;5050978;28;20036;-84
2021/03/13 05:54:59;;;;;;;0.10;0.00;;;19.80;37.40;;;;;;5042794;28;20043;-84
2021/03/13 05:57:25;;;;;;;0.30;0.00;;;19.70;37.30;;;;;;5026875;28;20029;-84
2021/03/13 05:59:51;;;;;;;0.10;0.00;;;19.70;37.40;;;;;;5044094;28;20032;-84
2021/03/13 06:02:20;;;;;;;0.08;0.00;;;19.70;37.30;;;;;;5042363;28;20106;-84
2021/03/13 06:04:47;;;;;;;0.00;0.00;;;19.70;37.40;;;;;;5040793;28;20024;-84
2021/03/13 06:07:23;;;;;;;0.10;0.00;;;19.70;37.40;;;;;;5024935;28;20026;-84
2021/03/13 06:09:53;;;;;;;0.08;0.00;;;19.70;37.40;;;;;;5043356;28;20112;-83
2021/03/13 06:12:19;;;;;;;0.00;0.00;;;19.70;37.40;;;;;;5023969;28;20025;-84
2021/03/13 06:14:53;;;;;;;0.10;0.00;;;19.70;37.90;;;;;;5042056;28;20029;-84
2021/03/13 06:17:21;;;;;;;0.10;0.00;;;19.70;37.40;;;;;;5041088;28;20021;-84
2021/03/13 06:19:57;;;;;;;0.13;0.00;;;19.70;37.40;;;;;;5039763;28;20642;-84
2021/03/13 06:22:37;;;;;;;0.00;0.00;;;19.70;37.40;;;;;;5039214;28;20468;-83
2021/03/13 06:25:19;;;;;;;0.20;0.00;;;19.70;37.40;;;;;;5024221;28;20088;-83
2021/03/13 06:28:02;;;;;;;0.25;0.00;;;19.60;37.40;;;;;;5023547;28;20051;-83
2021/03/13 06:30:32;;;;;;;0.40;0.00;;;19.70;37.40;;;;;;5044038;28;20029;-82
2021/03/13 06:32:58;;;;;;;0.08;0.00;;;19.60;37.30;;;;;;5025008;28;20029;-83
2021/03/13 06:35:30;;;;;;;1.00;0.00;;;19.60;37.40;;;;;;5042731;28;20520;-83
2021/03/13 06:37:59;;;;;;;;;;;19.60;37.40;;;;;;5042323;28;20029;-83
2021/03/13 06:40:36;;;;;;;0.20;0.00;;;19.60;37.40;;;;;;5025782;28;19909;-83
2021/03/13 06:43:17;;;;;;;0.03;0.00;;;19.60;37.40;;;;;;5043065;28;20029;-83
2021/03/13 06:45:53;;;;;;;0.17;0.00;;;19.60;37.40;;;;;;5028024;28;20097;-84
2021/03/13 06:48:39;;;;;;;0.30;0.00;;;19.60;37.40;;;;;;5043532;28;20112;-83
2021/03/13 06:51:14;;;;;;;0.00;0.00;;;19.60;37.40;;;;;;5058412;28;20448;-83
2021/03/13 06:53:40;;;;;;;0.03;0.00;;;19.60;37.40;;;;;;5044034;28;20064;-83
2021/03/13 06:56:11;;;;;;;0.20;0.00;;;19.60;37.40;;;;;;5041771;28;20029;-84
2021/03/13 06:58:37;;;;;;;0.20;0.00;;;19.60;37.50;;;;;;5041150;28;20404;-84
2021/03/13 07:01:07;;;;;;;0.10;0.00;;;19.60;37.50;;;;;;5041654;28;20492;-83
2021/03/13 07:03:47;;;;;;;0.00;0.00;;;19.60;37.40;;;;;;5040994;28;20099;-84
2021/03/13 07:06:17;;;;;;;0.10;0.00;;;19.60;37.40;;;;;;5026677;28;20029;-84
2021/03/13 07:08:44;;;;;;;0.05;0.00;;;19.60;37.40;;;;;;5045137;28;20029;-83
2021/03/13 07:11:10;;;;;;;0.10;0.00;;;19.60;37.40;;;;;;5042129;28;20043;-83
2021/03/13 07:13:42;;;;;;;0.00;0.00;;;19.60;37.40;;;;;;5040949;28;20029;-84
2021/03/13 07:16:28;;;;;;;0.03;0.00;;;19.60;37.40;;;;;;5046758;28;20021;-83
2021/03/13 07:18:55;;;;;;;0.10;0.00;;;19.60;37.50;;;;;;5063062;28;20041;-83
2021/03/13 07:21:21;;;;;;;0.20;0.00;;;19.50;37.50;;;;;;5042254;28;20120;-84
2021/03/13 07:23:56;;;;;;;0.22;0.00;;;19.50;37.70;;;;;;5026510;28;20335;-83
2021/03/13 07:26:25;;;;;;;0.00;0.00;;;19.50;37.90;;;;;;5041938;28;20432;-82
2021/03/13 07:28:59;;;;;;;0.00;0.00;;;19.50;38.10;;;;;;5040492;28;20443;-82
2021/03/13 07:31:27;;;;;;;0.15;0.00;;;19.50;38.20;;;;;;5031679;28;20021;-80
2021/03/13 07:33:55;;;;;;;0.98;0.00;;;19.50;38.30;;;;;;5040241;28;20034;-83
2021/03/13 07:36:22;;;;;;;0.38;0.00;;;19.50;38.20;;;;;;5041922;28;20036;-83
2021/03/13 07:38:50;;;;;;;2.97;0.00;;;19.50;38.20;;;;;;5023663;28;20028;-84
2021/03/13 07:41:17;;;;;;;0.10;0.00;;;19.50;38.30;;;;;;5044458;28;20041;-83
2021/03/13 07:43:44;;;;;;;0.20;0.00;;;19.50;38.20;;;;;;5046572;28;20060;-83
2021/03/13 07:46:10;;;;;;;0.10;0.00;;;19.50;38.20;;;;;;5044267;28;20382;-83
2021/03/13 07:48:37;;;;;;;1.00;0.00;;;19.50;38.20;;;;;;5044961;28;20025;-84
2021/03/13 07:51:05;;;;;;;0.03;0.00;;;19.40;38.10;;;;;;5047648;28;20485;-84
2021/03/13 07:53:35;;;;;;;0.10;0.00;;;19.40;38.10;;;;;;5046105;28;20064;-83
2021/03/13 07:56:04;;;;;;;0.17;0.00;;;19.50;38.10;;;;;;5026175;28;20080;-83
2021/03/13 07:58:30;;;;;;;0.20;0.00;;;19.50;37.90;;;;;;5045501;28;20579;-84
2021/03/13 08:00:58;;;;;;;0.10;0.00;;;19.50;37.90;;;;;;5044494;28;20037;-83
2021/03/13 08:03:37;;;;;;;0.32;0.00;;;19.50;37.80;;;;;;5047123;28;20117;-83
2021/03/13 08:06:04;;;;;;;0.57;0.00;;;19.50;37.90;;;;;;5025792;28;20026;-83
2021/03/13 08:08:38;;;;;;;1.65;0.32;;;19.50;37.80;;;;;;5044078;28;20037;-83
2021/03/13 08:11:05;;;;;;;1.42;0.00;;;19.40;37.80;;;;;;5049010;28;20044;-83
2021/03/13 08:13:31;;;;;;;0.05;0.00;;;19.40;37.80;;;;;;5041369;28;20029;-83
2021/03/13 08:16:04;;;;;;;2.67;0.00;;;19.50;37.80;;;;;;5026050;28;20029;-84
2021/03/13 08:18:50;;;;;;;0.10;0.00;;;19.50;37.90;;;;;;5045811;28;20047;-83
2021/03/13 08:21:21;;;;;;;0.43;0.00;;;19.50;37.90;;;;;;5043272;28;20283;-83
2021/03/13 08:23:51;;;;;;;0.50;0.00;;;19.40;37.80;;;;;;5045462;28;20025;-83
2021/03/13 08:26:19;;;;;;;0.60;0.00;;;19.40;37.90;;;;;;5044812;28;20025;-83
2021/03/13 08:28:47;;;;;;;0.45;0.00;;;19.40;37.90;;;;;;5044662;28;20527;-83
2021/03/13 08:31:22;;;;;;;0.30;0.00;;;19.40;37.80;;;;;;5043816;28;20020;-83
2021/03/13 08:33:52;;;;;;;0.63;0.10;;;19.40;37.80;;;;;;5043909;28;20025;-83
2021/03/13 08:36:22;;;;;;;0.50;0.00;;;19.40;37.80;;;;;;5025825;28;20299;-84
2021/03/13 08:38:57;;;;;;;0.20;0.00;;;19.40;37.80;;;;;;5023610;28;20033;-82
2021/03/13 08:41:41;;;;;;;0.08;0.00;;;19.50;38.30;;;;;;5028114;28;20025;-83
2021/03/13 08:44:25;;;;;;;0.55;0.00;;;19.40;37.70;;;;;;5028434;28;20462;-83
2021/03/13 08:47:03;;;;;;;0.10;0.00;;;19.40;37.60;;;;;;5044729;28;20029;-84
2021/03/13 08:49:29;;;;;;;0.30;0.00;;;19.40;37.60;;;;;;5029198;28;20388;-83
2021/03/13 08:52:07;;;;;;;0.20;0.00;;;19.50;37.60;;;;;;5044582;28;20045;-83
2021/03/13 08:54:39;;;;;;;0.20;0.00;;;19.50;37.70;;;;;;5043454;28;20051;-83
2021/03/13 08:57:12;;;;;;;0.25;0.00;;;19.50;37.70;;;;;;5044717;28;20026;-84
2021/03/13 08:59:43;;;;;;;0.50;0.00;;;19.50;37.70;;;;;;5043501;28;20033;-83
2021/03/13 09:02:14;;;;;;;1.00;0.10;;;19.50;37.60;;;;;;5044961;28;20388;-83
2021/03/13 09:04:42;;;;;;;0.20;0.00;;;19.50;37.60;;;;;;5026695;28;21986;-83
2021/03/13 09:07:09;;;;;;;0.20;0.00;;;19.50;37.50;;;;;;5044505;28;20520;-83
2021/03/13 09:09:36;;;;;;;0.73;0.00;;;19.50;37.60;;;;;;5040545;28;20075;-83
2021/03/13 09:12:09;;;;;;;0.20;0.00;;;19.50;37.70;;;;;;5046048;28;20089;-84
2021/03/13 09:14:37;;;;;;;0.55;0.10;;;19.50;37.60;;;;;;5029210;28;20040;-83
2021/03/13 09:17:11;;;;;;;0.73;0.00;;;19.50;37.60;;;;;;5044068;28;20026;-83
2021/03/13 09:19:38;;;;;;;0.50;0.10;;;19.50;37.70;;;;;;5047728;28;20091;-83
2021/03/13 09:22:24;;;;;;;0.10;0.00;;;19.40;37.60;;;;;;5071447;28;20033;-82
2021/03/13 09:24:59;;;;;;;1.00;0.10;;;19.40;37.60;;;;;;5051370;28;20025;-83
2021/03/13 09:27:30;;;;;;;0.20;0.00;;;19.50;37.60;;;;;;5076230;28;20092;-82
2021/03/13 09:29:57;;;;;;;0.30;0.10;;;19.40;37.60;;;;;;5052846;28;20057;-82
2021/03/13 09:32:24;;;;;;;0.55;0.00;;;19.40;38.00;;;;;;5054550;28;20060;-84
2021/03/13 09:34:52;;;;;;;0.45;0.10;;;19.50;37.60;;;;;;5050439;28;20057;-83
2021/03/13 09:37:22;;;;;;;0.30;0.10;;;19.50;37.60;;;;;;5046702;28;20420;-82
2021/03/13 09:39:51;;;;;;;0.77;0.00;;;19.50;37.60;;;;;;5048290;28;20064;-83
2021/03/13 09:42:25;;;;;;;0.30;0.00;;;19.40;37.60;;;;;;5047466;28;20074;-83
2021/03/13 09:44:52;;;;;;;0.55;0.00;;;19.50;37.70;;;;;;5044391;28;20025;-83
2021/03/13 09:47:27;;;;;;;0.15;0.00;;;19.40;37.60;;;;;;5046046;28;20056;-82
2021/03/13 09:49:56;;;;;;;0.52;0.10;;;19.40;37.70;;;;;;5046266;28;20062;-83
2021/03/13 09:52:29;;;;;;;0.73;0.10;;;19.40;38.10;;;;;;5046234;28;20054;-83
2021/03/13 09:55:00;;;;;;;2.83;0.00;;;19.50;38.50;;;;;;5047181;28;20026;-81
2021/03/13 09:57:26;;;;;;;0.50;0.10;;;19.60;38.60;;;;;;5049638;28;20031;-83
2021/03/13 09:59:52;;;;;;;3.13;0.10;;;19.60;38.50;;;;;;5029539;28;20693;-83
2021/03/13 10:02:20;;;;;;;0.73;0.10;;;19.70;38.50;;;;;;5049892;28;20546;-84
2021/03/13 10:04:47;;;;;;;0.30;0.10;;;19.90;38.60;;;;;;5047467;28;20041;-83
2021/03/13 10:07:14;;;;;;;1.27;0.10;;;19.90;38.40;;;;;;5048389;28;20028;-83
2021/03/13 10:09:55;;;;;;;0.85;0.20;;;20.00;38.40;;;;;;5031856;28;20029;-83
2021/03/13 10:12:32;;;;;;;1.08;0.10;;;20.10;38.40;;;;;;5050312;28;20427;-83
2021/03/13 10:15:19;;;;;;;0.50;0.10;;;20.20;38.30;;;;;;5048723;28;20096;-83
2021/03/13 10:17:55;;;;;;;0.60;0.10;;;20.30;38.40;;;;;;5032475;28;20032;-82
2021/03/13 10:20:22;;;;;;;0.70;0.20;;;20.30;38.40;;;;;;5059681;28;20036;-83
2021/03/13 10:22:48;;;;;;;1.08;0.10;;;20.30;38.30;;;;;;5049098;28;20035;-82
2021/03/13 10:25:14;;;;;;;0.70;0.10;;;20.40;38.50;;;;;;5039476;28;20064;-81
2021/03/13 10:27:40;;;;;;;0.88;0.20;;;20.40;38.30;;;;;;5043476;28;20021;-81
2021/03/13 10:30:08;;;;;;;0.40;0.10;;;20.40;38.40;;;;;;5041612;28;20378;-81
2021/03/13 10:32:36;;;;;;;1.23;0.10;;;20.40;38.80;;;;;;5023600;28;20036;-81
2021/03/13 10:35:10;;;;;;;1.15;0.10;;;20.40;38.80;;;;;;5042575;28;20028;-81
2021/03/13 10:37:45;;;;;;;1.15;0.40;;;20.40;38.90;;;;;;5041927;28;20393;-82
2021/03/13 10:40:44;;;;;;;3.03;0.20;;;20.40;38.50;;;;;;5043179;28;20039;-82
2021/03/13 10:43:14;;;;;;;0.90;0.20;;;20.50;38.70;;;;;;5044190;28;20072;-81
2021/03/13 10:45:41;;;;;;;1.15;0.30;;;20.50;38.80;;;;;;5041000;28;20065;-82
2021/03/13 10:48:08;;;;;;;2.00;0.20;;;20.40;39.20;;;;;;5040161;28;20032;-81
2021/03/13 10:50:39;;;;;;;1.63;0.25;;;20.30;39.30;;;;;;5041341;28;20032;-81
2021/03/13 10:53:28;;;;;;;4.35;0.25;;;20.40;39.10;;;;;;5063092;28;20301;-83
2021/03/13 10:56:13;;;;;;;4.07;0.40;;;20.40;39.00;;;;;;5058041;28;20025;-84
2021/03/13 10:58:50;;;;;;;3.92;0.30;;;20.40;39.00;;;;;;5026892;28;20389;-83
2021/03/13 11:01:17;;;;;;;3.13;0.40;;;20.40;38.90;;;;;;5043220;28;20311;-84
2021/03/13 11:03:44;;;;;;;2.83;0.20;;;20.40;39.00;;;;;;5044716;28;20087;-84
2021/03/13 11:06:22;;;;;;;1.88;0.30;;;20.30;39.20;;;;;;5045860;28;20053;-83
2021/03/13 11:08:48;;;;;;;4.13;0.50;;;20.30;39.30;;;;;;5042175;28;20088;-83
2021/03/13 11:11:13;;;;;;;1.88;0.52;;;20.30;39.40;;;;;;5042303;28;20052;-83
2021/03/13 11:13:39;;;;;;;1.42;0.38;;;20.20;39.30;;;;;;5023335;28;20029;-83
2021/03/13 11:16:05;;;;;;;3.83;0.68;;;20.20;39.10;;;;;;5029277;28;20041;-83
2021/03/13 11:18:30;;;;;;;1.88;0.38;;;20.20;38.90;;;;;;5028952;28;20029;-84
2021/03/13 11:20:56;;;;;;;1.83;0.30;;;20.20;38.90;;;;;;5047328;28;20069;-83
2021/03/13 11:23:21;;;;;;;1.75;0.20;;;20.20;38.80;;;;;;5029700;28;20025;-83
2021/03/13 11:25:48;;;;;;;1.05;0.10;;;20.20;38.80;;;;;;5055715;28;20025;-83
2021/03/13 11:28:14;;;;;;;2.28;0.40;;;20.20;38.90;;;;;;5068007;28;20031;-83
2021/03/13 11:30:39;;;;;;;3.28;0.15;;;20.10;38.90;;;;;;5046572;28;20037;-83
2021/03/13 11:33:05;;;;;;;2.38;0.40;;;20.10;38.90;;;;;;5028960;28;20029;-84
2021/03/13 11:35:34;;;;;;;2.72;0.40;;;20.10;38.90;;;;;;5028426;28;20670;-84
2021/03/13 11:38:00;;;;;;;1.83;0.20;;;20.10;38.80;;;;;;5028867;28;20037;-83
2021/03/13 11:40:25;;;;;;;1.15;0.35;;;20.10;38.80;;;;;;5048606;28;20037;-84
2021/03/13 11:42:52;;;;;;;0.98;0.20;;;20.00;38.70;;;;;;5047248;28;20489;-84
2021/03/13 11:45:19;;;;;;;2.78;0.50;;;20.10;38.70;;;;;;5045804;28;20029;-83
2021/03/13 11:47:45;;;;;;;1.10;0.20;;;20.10;38.70;;;;;;5049104;28;20037;-84
2021/03/13 11:50:13;;;;;;;2.10;0.40;;;20.10;38.60;;;;;;5051538;28;20040;-84
2021/03/13 11:52:39;;;;;;;2.10;0.20;;;20.10;38.50;;;;;;5053525;28;20491;-84
2021/03/13 11:55:07;;;;;;;1.92;0.20;;;20.20;38.50;;;;;;5043588;28;20416;-83
2021/03/13 11:57:33;;;;;;;2.92;0.32;;;20.20;38.40;;;;;;5056461;28;20040;-84
2021/03/13 11:59:58;;;;;;;2.17;0.10;;;20.20;38.30;;;;;;5048563;28;20029;-84
2021/03/13 12:02:24;;;;;;;3.80;0.30;;;20.20;38.40;;;;;;5045796;28;20025;-84
2021/03/13 12:04:49;;;;;;;1.95;0.20;;;20.20;38.40;;;;;;5030050;28;20400;-86
2021/03/13 12:07:15;;;;;;;2.17;0.13;;;20.20;38.40;;;;;;5032510;28;20032;-83
2021/03/13 12:09:41;;;;;;;1.75;0.20;;;20.10;38.40;;;;;;5030783;28;20033;-84
2021/03/13 12:12:09;;;;;;;1.00;0.20;;;20.20;38.50;;;;;;5051414;28;20029;-83
2021/03/13 12:14:35;;;;;;;1.15;0.20;;;20.20;38.60;;;;;;5032886;28;20110;-83
2021/03/13 12:17:01;;;;;;;0.73;0.20;;;20.20;38.70;;;;;;5034269;28;20419;-83
2021/03/13 12:19:27;;;;;;;2.50;0.30;;;20.10;38.70;;;;;;5050825;28;20056;-83
2021/03/13 12:21:53;;;;;;;3.00;0.47;;;20.10;38.80;;;;;;5034412;28;20040;-84
2021/03/13 12:24:19;;;;;;;2.70;0.20;;;20.10;38.80;;;;;;5049189;28;20021;-83
2021/03/13 12:26:45;;;;;;;1.58;0.20;;;20.00;38.70;;;;;;5049127;28;20447;-83
2021/03/13 12:29:11;;;;;;;1.52;0.20;;;20.00;38.80;;;;;;5047427;28;20044;-83
2021/03/13 12:31:36;;;;;;;1.13;0.20;;;20.00;38.90;;;;;;5041553;28;20052;-83
2021/03/13 12:34:02;;;;;;;1.52;0.20;;;20.00;38.90;;;;;;5040174;28;20043;-83
2021/03/13 12:36:28;;;;;;;1.10;0.25;;;20.00;38.90;;;;;;5057874;28;20036;-83
2021/03/13 12:38:54;;;;;;;2.42;0.10;;;20.00;38.80;;;;;;5028452;28;20100;-83
2021/03/13 12:41:19;;;;;;;1.10;0.20;;;20.00;38.90;;;;;;5045198;28;20033;-83
2021/03/13 12:43:45;;;;;;;1.80;0.40;;;19.90;38.90;;;;;;5052163;28;20106;-83
2021/03/13 12:46:15;;;;;;;2.42;0.30;;;19.90;38.90;;;;;;5032623;28;20021;-83
2021/03/13 12:48:45;;;;;;;1.23;0.20;;;20.00;39.00;;;;;;5029241;28;20033;-83
2021/03/13 12:51:11;;;;;;;1.80;0.25;;;20.00;38.90;;;;;;5030307;28;20124;-83
2021/03/13 12:53:37;;;;;;;1.20;0.30;;;19.90;38.80;;;;;;5045356;28;20037;-83
2021/03/13 12:56:03;;;;;;;1.65;0.25;;;19.90;38.80;;;;;;5029076;28;20363;-83
2021/03/13 12:58:29;;;;;;;3.80;0.20;;;19.90;39.00;;;;;;5032819;28;20367;-83